Charleston Heights, South Carolina
Current Conditions -  °F | °C
As of 3:56 PM on Saturday 22 Nov 2014 (Local Time) from KCHS Reporting Station
Few Clouds Few Clouds  
Wind Chill: 17°   Ceiling: Unl
Heat Index: 17°   Visibility: 10mi
Dew Point:   Wind: 12mph
Humidity: 62%   Direction: 100°E
Pressure: 30.36"   Gusts: NA
Location:  32.8713°N, 80.0388°W
Report Text: KCHS 222056Z 10010KT 10SM FEW250 17/09 A3036 RMK AO2 SLP281 T01670094 56019 $
Loading
Personal Weather Stations






























Interactive Weather Map New forecast layout! Learn more

10-Day Weather Forecast

Advertisements
Track Severe Weather on mobile